Time;durP1;ratioP1;P1;durP2;ratioP2;P2;SDS_P1;SDS_P2;PMS_P1;PMS_P2;Temp;Humidity;BMP_temperature;BMP_pressure;BME280_temperature;BME280_humidity;BME280_pressure;Samples;Min_cycle;Max_cycle;Signal;HPM_P1;HPM_P2
2023/08/08 00:01:30;;;;;;;12.75;1.95;;;;;;;-146.27;86.08;82014.59;5028750;28;20021;-73
2023/08/08 00:03:56;;;;;;;9.77;2.20;;;;;;;-146.27;85.27;82006.53;5028749;28;20080;-72
2023/08/08 00:06:21;;;;;;;12.20;2.10;;;;;;;-146.27;84.24;82002.53;5029517;28;20145;-72
2023/08/08 00:08:47;;;;;;;6.82;1.90;;;;;;;-146.27;82.51;82018.59;5027226;28;20025;-73
2023/08/08 00:11:12;;;;;;;7.60;2.13;;;;;;;-146.27;81.87;81978.44;5027910;28;20025;-73
2023/08/08 00:13:37;;;;;;;10.05;1.95;;;;;;;-146.27;81.02;81988.47;5030696;28;20021;-73
2023/08/08 00:16:03;;;;;;;8.05;1.90;;;;;;;-146.27;80.72;81982.44;5028720;28;20028;-72
2023/08/08 00:18:29;;;;;;;7.57;1.70;;;;;;;-146.27;80.12;81994.50;5027005;28;20029;-73
2023/08/08 00:20:54;;;;;;;6.25;1.75;;;;;;;-146.27;79.76;81990.47;5028361;28;20141;-73
2023/08/08 00:23:19;;;;;;;5.30;1.70;;;;;;;-146.27;79.40;81974.41;5027903;28;20033;-73
2023/08/08 00:25:49;;;;;;;4.40;1.75;;;;;;;-146.27;79.40;81962.34;5030259;28;20027;-72
2023/08/08 00:28:16;;;;;;;7.57;1.70;;;;;;;-146.27;79.81;81970.41;5028644;28;20030;-73
2023/08/08 00:30:41;;;;;;;11.73;1.65;;;;;;;-146.27;79.67;82006.53;5029063;28;20397;-73
2023/08/08 00:33:06;;;;;;;3.78;1.63;;;;;;;-146.27;79.28;81956.34;5028819;28;20033;-73
2023/08/08 00:35:32;;;;;;;5.03;1.67;;;;;;;-146.27;78.65;82026.63;5031101;28;20390;-73
2023/08/08 00:37:57;;;;;;;3.13;1.48;;;;;;;-146.27;78.27;82014.59;5028525;28;20028;-73
2023/08/08 00:40:23;;;;;;;6.55;1.50;;;;;;;-146.27;78.32;81996.50;5025515;28;20043;-73
2023/08/08 00:42:48;;;;;;;4.55;1.45;;;;;;;-146.27;77.72;82042.69;5028149;28;20075;-72
2023/08/08 00:45:13;;;;;;;3.78;1.52;;;;;;;-146.27;78.13;82054.75;5029624;28;20133;-73
2023/08/08 00:47:39;;;;;;;4.53;1.42;;;;;;;-146.27;76.57;82036.69;5028944;28;20465;-73
2023/08/08 00:50:05;;;;;;;2.75;1.23;;;;;;;-146.27;76.20;82046.72;5027259;28;21022;-73
2023/08/08 00:52:31;;;;;;;6.28;1.50;;;;;;;-146.27;75.54;82038.69;5028475;28;20408;-73
2023/08/08 00:54:56;;;;;;;2.83;1.50;;;;;;;-146.27;75.25;82050.75;5028506;28;20037;-73
2023/08/08 00:57:22;;;;;;;3.10;1.63;;;;;;;-146.27;74.77;82062.78;5030858;28;20025;-73
2023/08/08 00:59:47;;;;;;;1.15;1.10;;;;;;;-146.27;74.60;82054.75;5028829;28;20025;-73
2023/08/08 01:02:13;;;;;;;2.78;1.23;;;;;;;-146.27;74.51;82076.84;5030040;28;20029;-73
2023/08/08 01:04:39;;;;;;;6.10;1.40;;;;;;;-146.27;74.43;82066.81;5029103;28;20049;-73
2023/08/08 01:07:52;;;;;;;5.28;1.13;;;;;;;-146.27;74.67;82080.88;5021779;28;20038;-73
2023/08/08 01:10:26;;;;;;;2.92;1.20;;;;;;;-146.27;74.25;82088.91;5029265;28;20076;-73
2023/08/08 01:12:55;;;;;;;2.17;1.30;;;;;;;-146.27;73.78;82121.03;5022646;28;20029;-73
2023/08/08 01:15:22;;;;;;;10.13;2.90;;;;;;;-146.27;73.59;82074.84;5029759;28;20033;-73
2023/08/08 01:17:48;;;;;;;3.20;1.30;;;;;;;-146.27;73.34;82088.91;5030259;28;20047;-73
2023/08/08 01:20:16;;;;;;;6.18;1.40;;;;;;;-146.27;73.21;82088.91;5028247;28;20021;-72
2023/08/08 01:22:50;;;;;;;2.42;1.27;;;;;;;-146.27;73.37;82090.91;5027497;28;20775;-72
2023/08/08 01:25:16;;;;;;;1.48;1.00;;;;;;;-146.27;73.26;82022.63;5026194;28;20033;-72
2023/08/08 01:27:42;;;;;;;2.55;1.17;;;;;;;-146.27;73.17;82121.03;5030482;28;20091;-71
2023/08/08 01:30:08;;;;;;;4.55;1.17;;;;;;;-146.27;72.82;82115.00;5029038;28;20155;-73
2023/08/08 01:32:34;;;;;;;5.55;1.60;;;;;;;-146.27;73.09;82111.00;5030516;28;20113;-73
2023/08/08 01:34:59;;;;;;;3.30;1.45;;;;;;;-146.27;72.84;82094.94;5029244;28;20611;-73
2023/08/08 01:37:32;;;;;;;6.97;1.13;;;;;;;-146.27;73.12;82106.97;5029779;28;20136;-74
2023/08/08 01:40:00;;;;;;;8.85;1.60;;;;;;;-146.27;73.19;82078.84;5019022;28;20025;-73
2023/08/08 01:42:26;;;;;;;5.68;1.20;;;;;;;-146.27;73.18;82106.97;5027521;28;20450;-72
2023/08/08 01:44:54;;;;;;;5.57;1.48;;;;;;;-146.27;73.11;82090.91;5028846;28;20416;-72
2023/08/08 01:47:19;;;;;;;3.10;1.08;;;;;;;-146.27;73.48;82086.91;5031305;28;20087;-73
2023/08/08 01:49:45;;;;;;;4.40;1.20;;;;;;;-146.27;73.66;82106.97;5030581;28;20033;-73
2023/08/08 01:52:10;;;;;;;3.72;1.20;;;;;;;-146.27;74.12;82090.91;5030045;28;20604;-73
2023/08/08 01:54:35;;;;;;;3.42;1.20;;;;;;;-146.27;74.61;82098.94;5030056;28;20034;-72
2023/08/08 01:57:01;;;;;;;5.57;1.40;;;;;;;-146.27;74.70;82115.00;5015938;28;20029;-73
2023/08/08 01:59:26;;;;;;;7.22;1.23;;;;;;;-146.27;74.98;82129.06;5029600;28;20075;-73
2023/08/08 02:01:52;;;;;;;4.07;1.40;;;;;;;-146.27;75.30;82131.09;5028977;28;20181;-72
2023/08/08 02:04:17;;;;;;;6.72;1.38;;;;;;;-146.27;75.51;82141.13;5029937;28;20071;-73
2023/08/08 02:06:42;;;;;;;9.25;1.42;;;;;;;-146.27;75.72;82167.25;5029941;28;20504;-71
2023/08/08 02:09:08;;;;;;;7.13;1.80;;;;;;;-146.27;75.94;82074.84;5020936;28;20029;-72
2023/08/08 02:11:33;;;;;;;3.85;1.20;;;;;;;-146.27;75.47;82125.06;5021296;28;20025;-73
2023/08/08 02:13:59;;;;;;;7.22;1.30;;;;;;;-146.27;75.71;82151.16;5025609;28;20425;-73
2023/08/08 02:16:24;;;;;;;7.28;1.23;;;;;;;-146.27;75.23;82100.97;5027147;28;20031;-72
2023/08/08 02:18:49;;;;;;;7.40;1.30;;;;;;;-146.27;75.34;82139.13;5027257;28;20033;-73
2023/08/08 02:21:15;;;;;;;3.58;1.17;;;;;;;-146.27;74.86;82165.22;5017998;28;20021;-73
2023/08/08 02:23:40;;;;;;;5.88;1.50;;;;;;;-146.27;74.71;82151.16;5027960;28;20048;-73
2023/08/08 02:26:06;;;;;;;8.45;1.33;;;;;;;-146.27;74.74;82123.06;5028382;28;20029;-74
2023/08/08 02:28:31;;;;;;;6.05;1.25;;;;;;;-146.27;74.48;82139.13;5028199;28;20029;-73
2023/08/08 02:30:56;;;;;;;9.52;1.60;;;;;;;-146.27;74.44;82139.13;5028083;28;21011;-73
2023/08/08 02:33:22;;;;;;;7.93;1.52;;;;;;;-146.27;74.21;82153.19;5029070;28;20037;-73
2023/08/08 02:35:47;;;;;;;7.28;1.45;;;;;;;-146.27;74.14;82163.22;5027794;28;20033;-72
2023/08/08 02:38:13;;;;;;;3.72;1.40;;;;;;;-146.27;73.94;82131.09;5029435;28;20033;-72
2023/08/08 02:40:38;;;;;;;5.60;1.48;;;;;;;-146.27;73.76;82117.03;5028234;28;20034;-72
2023/08/08 02:43:04;;;;;;;7.80;1.50;;;;;;;-146.27;73.82;82119.03;5026258;28;20029;-72
2023/08/08 02:45:29;;;;;;;3.70;1.25;;;;;;;-146.27;74.05;82121.03;5028541;28;20033;-72
2023/08/08 02:47:55;;;;;;;6.10;1.52;;;;;;;-146.27;73.26;82058.78;5026785;28;20071;-72
2023/08/08 02:50:20;;;;;;;3.50;1.05;;;;;;;-146.27;73.09;82131.09;5027702;28;20036;-72
2023/08/08 02:52:46;;;;;;;6.53;1.17;;;;;;;-146.27;73.11;82157.19;5024153;28;20033;-72
2023/08/08 02:55:11;;;;;;;4.60;1.10;;;;;;;-146.27;73.26;82157.19;5027444;28;20117;-72
2023/08/08 02:57:36;;;;;;;7.38;1.48;;;;;;;-146.27;73.39;82155.19;5027723;28;20029;-71
2023/08/08 03:00:03;;;;;;;4.43;1.30;;;;;;;-146.27;73.32;82135.09;5028020;28;20044;-73
2023/08/08 03:02:29;;;;;;;7.10;1.27;;;;;;;-146.27;73.45;82147.16;5028849;28;20032;-73
2023/08/08 03:04:55;;;;;;;4.55;1.20;;;;;;;-146.27;73.45;82171.25;5032889;28;20124;-72
2023/08/08 03:07:20;;;;;;;3.47;1.40;;;;;;;-146.27;73.67;82165.22;5026931;28;20025;-73
2023/08/08 03:09:48;;;;;;;5.38;1.08;;;;;;;-146.27;73.91;82183.31;5034049;28;20025;-73
2023/08/08 03:12:13;;;;;;;10.00;1.33;;;;;;;-146.27;73.94;82195.38;5031212;28;20422;-72
2023/08/08 03:14:39;;;;;;;5.88;1.23;;;;;;;-146.27;74.11;82177.28;5030562;28;20072;-73
2023/08/08 03:17:04;;;;;;;5.50;1.45;;;;;;;-146.27;74.55;82187.31;5030155;28;20025;-73
2023/08/08 03:19:30;;;;;;;5.38;1.05;;;;;;;-146.27;74.99;82141.13;5028573;28;20057;-72
2023/08/08 03:21:55;;;;;;;3.83;1.20;;;;;;;-146.27;75.36;82183.31;5030280;28;20496;-72
2023/08/08 03:24:20;;;;;;;8.52;1.80;;;;;;;-146.27;75.21;82191.34;5032149;28;20105;-72
2023/08/08 03:26:46;;;;;;;8.68;1.27;;;;;;;-146.27;75.09;82131.09;5031095;28;20087;-73
2023/08/08 03:29:12;;;;;;;6.45;1.40;;;;;;;-146.27;75.34;82159.22;5026598;28;20029;-72
2023/08/08 03:31:38;;;;;;;6.10;1.42;;;;;;;-146.27;75.40;82179.28;5031022;28;20068;-73
2023/08/08 03:34:04;;;;;;;8.95;1.33;;;;;;;-146.27;75.98;82191.34;5032497;28;20037;-74
2023/08/08 03:36:30;;;;;;;8.50;1.08;;;;;;;-146.27;75.88;82207.41;5031511;28;20029;-73
2023/08/08 03:38:55;;;;;;;5.18;1.38;;;;;;;-146.27;76.02;82201.38;5030557;28;20133;-72
2023/08/08 03:41:20;;;;;;;8.40;1.50;;;;;;;-146.27;76.26;82153.19;5030063;28;20052;-73
2023/08/08 03:43:46;;;;;;;5.88;1.38;;;;;;;-146.27;75.92;82241.56;5029280;28;20066;-72
2023/08/08 03:46:11;;;;;;;2.45;1.00;;;;;;;-146.27;75.31;82247.59;5033111;28;20041;-72
2023/08/08 03:48:37;;;;;;;6.05;1.52;;;;;;;-146.27;74.41;82245.59;5026552;28;20076;-73
2023/08/08 03:51:03;;;;;;;3.40;1.05;;;;;;;-146.27;73.18;82211.44;5029862;28;20105;-71
2023/08/08 03:53:28;;;;;;;2.38;1.55;;;;;;;-146.27;71.42;82231.53;5031104;28;20149;-72
2023/08/08 03:55:54;;;;;;;6.63;1.17;;;;;;;-146.27;70.18;82253.63;5030999;28;20039;-73
2023/08/08 03:58:19;;;;;;;3.08;0.90;;;;;;;-146.27;67.83;82255.63;5021078;28;20033;-72
2023/08/08 04:00:48;;;;;;;3.30;0.90;;;;;;;-146.27;66.38;82259.66;5029016;28;20023;-73
2023/08/08 04:03:14;;;;;;;1.65;0.70;;;;;;;-146.27;65.76;82295.81;5032257;28;20021;-72
2023/08/08 04:05:40;;;;;;;5.28;1.42;;;;;;;-146.27;65.31;82255.63;5029867;28;20041;-73
2023/08/08 04:08:06;;;;;;;2.63;0.80;;;;;;;-146.27;66.04;82243.56;5030486;28;20041;-73
2023/08/08 04:10:31;;;;;;;7.32;1.83;;;;;;;-146.27;65.71;82285.75;5031306;28;20393;-73
2023/08/08 04:12:56;;;;;;;0.70;0.70;;;;;;;-146.27;66.30;82372.13;5028867;28;20053;-73
2023/08/08 04:15:22;;;;;;;3.75;1.40;;;;;;;-146.27;67.22;82307.84;5031624;28;20163;-73
2023/08/08 04:17:47;;;;;;;4.00;1.10;;;;;;;-146.27;67.04;82275.72;5027680;28;20033;-73
2023/08/08 04:20:14;;;;;;;4.68;0.90;;;;;;;-146.27;67.52;82267.69;5031044;28;20033;-73
2023/08/08 04:22:40;;;;;;;3.10;1.00;;;;;;;-146.27;67.77;82291.78;5029168;28;20503;-72
2023/08/08 04:25:06;;;;;;;2.22;0.90;;;;;;;-146.27;68.11;82323.91;5029853;28;20029;-73
2023/08/08 04:27:31;;;;;;;1.92;0.80;;;;;;;-146.27;68.09;82259.66;5030015;28;20040;-73
2023/08/08 04:29:57;;;;;;;2.30;0.85;;;;;;;-146.27;68.15;82311.88;5028688;28;20044;-73
2023/08/08 04:32:22;;;;;;;1.88;0.90;;;;;;;-146.27;68.45;82285.75;5029737;28;20029;-73
2023/08/08 04:34:47;;;;;;;4.72;1.15;;;;;;;-146.27;68.61;82325.94;5031611;28;20045;-73
2023/08/08 04:37:13;;;;;;;5.88;1.10;;;;;;;-146.27;68.89;82335.97;5029586;28;20504;-73
2023/08/08 04:39:38;;;;;;;2.13;0.90;;;;;;;-146.27;69.08;82267.69;5029321;28;20030;-72
2023/08/08 04:42:04;;;;;;;3.15;1.23;;;;;;;-146.27;69.54;82279.72;5029890;28;20034;-73
2023/08/08 04:44:29;;;;;;;4.05;1.25;;;;;;;-146.27;69.83;82295.81;5030340;28;20157;-73
2023/08/08 04:46:55;;;;;;;3.00;0.93;;;;;;;-146.27;70.26;82307.84;5030064;28;20029;-73
2023/08/08 04:49:20;;;;;;;5.63;1.08;;;;;;;-146.27;70.88;82323.91;5029971;28;20022;-73
2023/08/08 04:51:46;;;;;;;4.47;1.40;;;;;;;-146.27;71.14;82307.84;5030153;28;20025;-72
2023/08/08 04:54:11;;;;;;;2.40;0.80;;;;;;;-146.27;71.78;82346.03;5030190;28;20033;-73
2023/08/08 04:56:36;;;;;;;8.93;2.67;;;;;;;-146.27;72.03;82319.91;5027111;28;20117;-74
2023/08/08 04:59:02;;;;;;;7.85;1.20;;;;;;;-146.27;72.09;82335.97;5024045;28;20409;-73
2023/08/08 05:01:27;;;;;;;5.25;1.20;;;;;;;-146.27;72.45;82319.91;5029550;28;20030;-73
2023/08/08 05:03:53;;;;;;;3.28;0.88;;;;;;;-146.27;72.75;82323.91;5029531;28;20025;-72
2023/08/08 05:06:18;;;;;;;5.22;0.85;;;;;;;-146.27;72.98;82380.16;5027797;28;20128;-73
2023/08/08 05:08:44;;;;;;;5.60;1.13;;;;;;;-146.27;72.98;82327.94;5027112;28;20108;-72
2023/08/08 05:11:09;;;;;;;2.05;0.73;;;;;;;-146.27;72.60;82273.72;5026125;28;20018;-73
2023/08/08 05:13:35;;;;;;;9.55;1.27;;;;;;;-146.27;72.79;82307.84;5020274;28;20040;-72
2023/08/08 05:16:00;;;;;;;4.53;1.05;;;;;;;-146.27;72.52;82337.97;5028892;28;20017;-73
2023/08/08 05:18:26;;;;;;;2.53;0.80;;;;;;;-146.27;72.01;82315.88;5028629;28;20479;-73
2023/08/08 05:20:51;;;;;;;10.70;1.10;;;;;;;-146.27;72.27;82313.88;5027251;28;20654;-72
2023/08/08 05:23:16;;;;;;;5.18;0.65;;;;;;;-146.27;70.95;82307.84;5029625;28;20099;-73
2023/08/08 05:25:42;;;;;;;2.70;0.90;;;;;;;-146.27;71.14;82331.97;5027028;28;20021;-72
2023/08/08 05:28:07;;;;;;;3.53;0.80;;;;;;;-146.27;70.40;82315.88;5029851;28;20029;-72
2023/08/08 05:30:33;;;;;;;1.40;0.70;;;;;;;-146.27;70.30;82291.78;5027521;28;20049;-73
2023/08/08 05:32:58;;;;;;;3.50;0.73;;;;;;;-146.27;69.90;82271.69;5028298;28;20682;-73
2023/08/08 05:35:24;;;;;;;8.15;0.93;;;;;;;-146.27;69.83;82337.97;5027141;28;20033;-73
2023/08/08 05:37:49;;;;;;;5.10;0.95;;;;;;;-146.27;69.63;82267.69;5024297;28;20124;-73
2023/08/08 05:40:15;;;;;;;1.35;0.57;;;;;;;-146.27;68.80;82299.81;5021890;28;20076;-73
2023/08/08 05:42:40;;;;;;;4.07;0.70;;;;;;;-146.27;68.19;82255.63;5023283;28;20536;-72
2023/08/08 05:45:06;;;;;;;3.25;0.70;;;;;;;-146.27;68.34;82279.72;5031199;28;20021;-73
2023/08/08 05:47:32;;;;;;;4.85;0.82;;;;;;;-146.27;68.71;82291.78;5027017;28;20029;-73
2023/08/08 05:49:58;;;;;;;1.10;0.60;;;;;;;-146.27;68.71;82249.59;5026441;28;20151;-72
2023/08/08 05:52:23;;;;;;;2.35;0.60;;;;;;;-146.27;68.98;82271.69;5018313;28;20544;-73
2023/08/08 05:54:49;;;;;;;6.28;0.82;;;;;;;-146.27;69.07;82293.78;5024838;28;20056;-72
2023/08/08 05:57:14;;;;;;;4.88;0.70;;;;;;;-146.27;69.33;82279.72;5021958;28;20025;-73
2023/08/08 05:59:39;;;;;;;7.18;1.67;;;;;;;-146.27;68.68;82245.59;5024717;28;20057;-73
2023/08/08 06:02:05;;;;;;;2.22;0.63;;;;;;;-146.27;68.74;82271.69;5026501;28;20186;-72
2023/08/08 06:04:31;;;;;;;3.90;0.70;;;;;;;-146.27;68.74;82217.47;5018138;28;20201;-73
2023/08/08 06:06:56;;;;;;;2.00;0.70;;;;;;;-146.27;68.88;82211.44;5024746;28;20548;-73
2023/08/08 06:09:22;;;;;;;3.83;0.93;;;;;;;-146.27;69.32;82221.47;5026083;28;20045;-72
2023/08/08 06:11:47;;;;;;;1.17;0.70;;;;;;;-146.27;69.40;82241.56;5020018;28;20017;-73
2023/08/08 06:14:13;;;;;;;1.98;0.80;;;;;;;-146.27;69.13;82255.63;5024078;28;21047;-70
2023/08/08 06:16:38;;;;;;;2.03;0.57;;;;;;;-146.27;69.32;82183.31;5021908;28;20110;-68
2023/08/08 06:19:04;;;;;;;5.75;0.80;;;;;;;-146.27;69.63;82201.38;5026736;28;20033;-68
2023/08/08 06:21:29;;;;;;;0.75;0.30;;;;;;;-146.27;69.75;82223.47;5030516;28;20021;-68
2023/08/08 06:23:55;;;;;;;6.43;0.63;;;;;;;-146.27;69.66;82153.19;5029107;28;20028;-68
2023/08/08 06:26:23;;;;;;;3.72;0.77;;;;;;;-146.27;69.96;82211.44;5027525;28;20021;-68
2023/08/08 06:28:51;;;;;;;4.30;0.60;;;;;;;-146.27;70.01;82159.22;5024545;28;20030;-68
2023/08/08 06:31:18;;;;;;;10.27;0.70;;;;;;;-146.27;68.27;82179.28;5023853;28;20071;-68
2023/08/08 06:33:44;;;;;;;1.42;0.60;;;;;;;-146.27;67.68;82191.34;5025803;28;20021;-69
2023/08/08 06:36:09;;;;;;;4.93;0.80;;;;;;;-146.27;67.31;82139.13;5025524;28;20037;-68
2023/08/08 06:38:34;;;;;;;6.32;1.40;;;;;;;-146.27;67.26;82189.34;5025300;28;20087;-69
2023/08/08 06:41:02;;;;;;;0.80;0.65;;;;;;;-146.27;68.01;82139.13;5028518;28;21926;-68
2023/08/08 06:43:27;;;;;;;1.02;0.65;;;;;;;-146.27;67.94;82123.06;5021857;28;20029;-68
2023/08/08 06:45:53;;;;;;;1.02;0.50;;;;;;;-146.27;68.15;82129.06;5028576;28;20040;-69
2023/08/08 06:48:18;;;;;;;5.20;0.80;;;;;;;-146.27;68.18;82121.03;5026524;28;20021;-68
2023/08/08 06:50:44;;;;;;;2.97;0.98;;;;;;;-146.27;67.89;82129.06;5027256;28;20026;-68
2023/08/08 06:53:09;;;;;;;3.10;0.60;;;;;;;-146.27;67.45;82147.16;5042980;28;20113;-68
2023/08/08 06:55:34;;;;;;;2.30;0.43;;;;;;;-146.27;66.85;82137.13;5026026;28;20029;-68
2023/08/08 06:58:00;;;;;;;2.50;0.52;;;;;;;-146.27;67.14;82066.81;5025945;28;20040;-70
2023/08/08 07:00:27;;;;;;;4.80;0.57;;;;;;;-146.27;66.20;82113.00;5025963;28;20068;-70
2023/08/08 07:02:52;;;;;;;3.40;0.50;;;;;;;-146.27;65.43;82058.78;5024584;28;20025;-70
2023/08/08 07:05:18;;;;;;;5.70;0.68;;;;;;;-146.27;65.77;82070.81;5024630;28;20103;-70
2023/08/08 07:07:44;;;;;;;2.70;0.60;;;;;;;-146.27;65.78;82074.84;5025840;28;20079;-70
2023/08/08 07:10:11;;;;;;;4.00;0.88;;;;;;;-146.27;64.76;82074.84;5027319;28;20450;-70
2023/08/08 07:12:37;;;;;;;3.42;1.02;;;;;;;-146.27;64.64;82078.84;5025486;28;20018;-70
2023/08/08 07:15:03;;;;;;;3.30;0.63;;;;;;;-146.27;63.97;82024.63;5026265;28;20036;-70
2023/08/08 07:17:28;;;;;;;3.83;0.90;;;;;;;-146.27;63.96;81994.50;5024533;28;20151;-70
2023/08/08 07:19:54;;;;;;;1.50;0.40;;;;;;;-146.27;63.18;82044.72;5023037;28;20443;-70
2023/08/08 07:22:22;;;;;;;1.98;0.70;;;;;;;-146.27;64.09;81994.50;5040821;28;20056;-71
2023/08/08 07:24:47;;;;;;;4.78;0.50;;;;;;;-146.27;62.72;81950.31;5023579;28;20389;-68
2023/08/08 07:27:13;;;;;;;2.53;0.57;;;;;;;-146.27;61.94;82008.56;5026438;28;20029;-69
2023/08/08 07:29:38;;;;;;;4.30;0.57;;;;;;;-146.27;62.19;82026.63;5024793;28;20342;-70
2023/08/08 07:32:04;;;;;;;1.42;0.50;;;;;;;-146.27;62.03;81990.47;5025158;28;20163;-72
2023/08/08 07:34:30;;;;;;;4.10;0.80;;;;;;;-146.27;62.73;82028.66;5023750;28;20029;-69
2023/08/08 07:36:56;;;;;;;3.42;0.40;;;;;;;-146.27;63.32;82054.75;5029148;28;20122;-69
2023/08/08 07:39:21;;;;;;;1.75;0.50;;;;;;;-146.27;63.82;82026.63;5024635;28;20033;-68
2023/08/08 07:41:47;;;;;;;5.80;0.70;;;;;;;-146.27;63.34;82034.66;5025585;28;20040;-69
2023/08/08 07:44:12;;;;;;;2.30;0.68;;;;;;;-146.27;64.47;82052.75;5022236;28;20036;-68
2023/08/08 07:46:37;;;;;;;3.78;0.63;;;;;;;-146.27;64.05;82050.75;5027275;28;20025;-68
2023/08/08 07:49:04;;;;;;;6.68;0.70;;;;;;;-146.27;64.18;81996.50;5029657;28;20053;-69
2023/08/08 07:51:30;;;;;;;2.80;0.52;;;;;;;-146.27;64.54;81930.22;5027544;28;20628;-68
2023/08/08 07:53:56;;;;;;;1.00;0.40;;;;;;;-146.27;64.46;81990.47;5026361;28;20048;-69
2023/08/08 07:56:21;;;;;;;2.40;0.50;;;;;;;-146.27;64.15;82034.66;5028245;28;20068;-68
2023/08/08 07:58:47;;;;;;;3.45;0.77;;;;;;;-146.27;64.34;81996.50;5030036;28;20068;-68
2023/08/08 08:01:13;;;;;;;3.53;0.50;;;;;;;-146.27;64.77;81992.50;5028577;28;20025;-69
2023/08/08 08:03:39;;;;;;;2.58;0.50;;;;;;;-146.27;65.16;81878.00;5031898;28;20051;-69
2023/08/08 08:06:04;;;;;;;2.05;0.70;;;;;;;-146.27;64.33;81920.19;5027408;28;20136;-70
2023/08/08 08:08:30;;;;;;;3.60;0.70;;;;;;;-146.27;64.91;81890.06;5043287;28;20029;-73
2023/08/08 08:10:55;;;;;;;3.70;0.50;;;;;;;-146.27;61.87;81898.09;5031030;28;20033;-72
2023/08/08 08:13:21;;;;;;;4.65;0.77;;;;;;;-146.27;62.48;81880.00;5032220;28;20068;-71
2023/08/08 08:15:46;;;;;;;1.10;0.75;;;;;;;-146.27;62.34;81970.41;5029383;28;20021;-70
2023/08/08 08:18:13;;;;;;;5.93;0.88;;;;;;;-146.27;63.67;81950.31;5028151;28;20041;-70
2023/08/08 08:20:39;;;;;;;3.08;1.35;;;;;;;-146.27;63.33;81896.06;5029804;28;20021;-70
2023/08/08 08:23:04;;;;;;;2.13;0.75;;;;;;;-146.27;63.20;81930.22;5031419;28;20389;-70
2023/08/08 08:25:31;;;;;;;7.20;0.70;;;;;;;-146.27;64.06;81892.06;5013453;28;20214;-72
2023/08/08 08:27:57;;;;;;;3.33;0.75;;;;;;;-146.27;64.72;81865.94;5012211;28;20542;-71
2023/08/08 08:30:25;;;;;;;4.22;0.90;;;;;;;-146.27;65.26;81898.09;5016690;28;20025;-69
2023/08/08 08:32:51;;;;;;;3.50;0.60;;;;;;;-146.27;64.74;81825.78;5025566;28;20025;-71
2023/08/08 08:35:17;;;;;;;6.82;1.10;;;;;;;-146.27;63.57;81855.91;5029939;28;20440;-71
2023/08/08 08:37:43;;;;;;;2.22;0.88;;;;;;;-146.27;63.59;81815.72;5029328;28;20021;-70
2023/08/08 08:40:09;;;;;;;4.38;0.80;;;;;;;-146.27;63.26;81793.66;5027067;28;20116;-70
2023/08/08 08:42:35;;;;;;;3.17;0.90;;;;;;;-146.27;62.63;81845.88;5031439;28;20021;-69
2023/08/08 08:45:04;;;;;;;2.15;0.80;;;;;;;-146.27;63.47;81765.53;5027347;28;20132;-70
2023/08/08 08:47:31;;;;;;;2.90;0.80;;;;;;;-146.27;62.03;81847.88;5027241;28;20047;-70
2023/08/08 08:49:57;;;;;;;6.68;0.90;;;;;;;-146.27;61.31;81869.97;5024128;28;20072;-71
2023/08/08 08:52:23;;;;;;;2.60;0.77;;;;;;;-146.27;61.71;81906.13;5024962;28;20037;-71
2023/08/08 08:54:50;;;;;;;5.13;1.75;;;;;;;-146.27;62.46;81837.81;5019260;28;20366;-71
2023/08/08 08:57:16;;;;;;;2.70;0.60;;;;;;;-146.27;62.98;81841.84;5026567;28;20032;-72
2023/08/08 08:59:41;;;;;;;3.33;0.65;;;;;;;-146.27;62.44;81849.88;5027636;28;20029;-71
2023/08/08 09:02:08;;;;;;;3.67;0.70;;;;;;;-146.27;61.68;81737.41;5025906;28;20025;-72
2023/08/08 09:04:34;;;;;;;2.50;0.65;;;;;;;-146.27;59.91;81721.34;5016071;28;20085;-69
2023/08/08 09:07:00;;;;;;;3.10;0.70;;;;;;;-146.27;60.09;81781.59;5024951;28;20040;-68
2023/08/08 09:09:26;;;;;;;1.00;0.50;;;;;;;-146.27;59.17;81761.50;5029436;28;20291;-69
2023/08/08 09:11:56;;;;;;;2.50;0.80;;;;;;;-146.27;58.38;81747.44;5025106;28;20038;-69
2023/08/08 09:14:23;;;;;;;2.15;0.60;;;;;;;-146.27;58.09;81775.56;5024270;28;20449;-70
2023/08/08 09:16:52;;;;;;;2.55;0.55;;;;;;;-146.27;57.75;81733.38;5025957;28;20104;-69
2023/08/08 09:19:20;;;;;;;2.67;0.82;;;;;;;-146.27;57.35;81693.22;5030091;28;20029;-69
2023/08/08 09:21:47;;;;;;;3.53;0.57;;;;;;;-146.27;57.38;81697.22;5026397;28;20028;-70
2023/08/08 09:24:12;;;;;;;1.13;0.70;;;;;;;-146.27;55.81;81729.38;5027292;28;20072;-70
2023/08/08 09:26:39;;;;;;;0.75;0.50;;;;;;;-146.27;54.22;81717.31;5020307;28;20049;-71
2023/08/08 09:29:05;;;;;;;2.10;1.00;;;;;;;-146.27;56.43;81687.19;5018081;28;20025;-71
2023/08/08 09:31:31;;;;;;;4.97;0.80;;;;;;;-146.27;56.28;81661.09;5020635;28;20033;-70
2023/08/08 09:33:58;;;;;;;3.45;0.70;;;;;;;-146.27;59.44;81749.47;5028226;28;20053;-70
2023/08/08 09:36:23;;;;;;;2.72;0.60;;;;;;;-146.27;58.55;81685.19;5023425;28;20037;-69
2023/08/08 09:38:49;;;;;;;7.63;1.10;;;;;;;-146.27;58.22;81665.09;5027777;28;20058;-71
2023/08/08 09:41:14;;;;;;;3.08;0.60;;;;;;;-146.27;59.47;81699.25;5028655;28;20032;-70
2023/08/08 09:43:43;;;;;;;3.78;0.65;;;;;;;-146.27;60.37;81636.97;5022575;28;20014;-72
2023/08/08 09:46:09;;;;;;;1.30;0.60;;;;;;;-146.27;56.52;81651.03;5027371;28;20040;-71
2023/08/08 09:48:35;;;;;;;2.85;0.80;;;;;;;-146.27;57.91;81574.72;5024499;28;20427;-72
2023/08/08 09:51:01;;;;;;;3.25;0.90;;;;;;;-146.27;57.89;81608.88;5027204;28;20021;-72
2023/08/08 09:53:27;;;;;;;2.65;0.63;;;;;;;-146.27;54.44;81657.06;5025975;28;20037;-71
2023/08/08 09:55:56;;;;;;;3.35;0.80;;;;;;;-146.27;56.04;81657.06;5028177;28;20033;-73
2023/08/08 09:58:23;;;;;;;4.63;1.10;;;;;;;-146.27;55.66;81677.16;5027555;28;20029;-72
2023/08/08 10:00:51;;;;;;;1.25;0.60;;;;;;;-146.27;54.26;81709.28;5027848;28;20095;-71
2023/08/08 10:03:18;;;;;;;3.70;0.73;;;;;;;-146.27;53.03;81659.06;5026487;28;20113;-72
2023/08/08 10:05:44;;;;;;;1.65;0.85;;;;;;;-146.27;52.41;81651.03;5027156;28;20111;-73
2023/08/08 10:08:10;;;;;;;1.42;0.77;;;;;;;-146.27;54.16;81596.81;5024365;28;21620;-72
2023/08/08 10:10:37;;;;;;;3.28;0.70;;;;;;;-146.27;52.08;81536.56;5018690;28;20110;-72
2023/08/08 10:13:03;;;;;;;1.95;0.47;;;;;;;-146.27;52.10;81496.41;5024509;28;20026;-72
2023/08/08 10:15:29;;;;;;;7.63;0.80;;;;;;;-146.27;51.86;81616.91;5027298;28;20655;-73
2023/08/08 10:17:58;;;;;;;3.63;0.70;;;;;;;-146.27;53.21;81600.84;5028060;28;20025;-73
2023/08/08 10:20:25;;;;;;;4.25;0.75;;;;;;;-146.27;51.87;81590.78;5028742;28;20035;-71
2023/08/08 10:22:54;;;;;;;3.97;0.65;;;;;;;-146.27;53.46;81576.72;5022276;28;20030;-73
2023/08/08 10:25:25;;;;;;;2.22;0.77;;;;;;;-146.27;54.41;81649.03;5027842;28;20065;-72
2023/08/08 10:28:13;;;;;;;2.20;0.70;;;;;;;-146.27;56.02;81574.72;5021181;28;20084;-71
2023/08/08 10:31:04;;;;;;;3.33;0.90;;;;;;;-146.27;56.14;81643.00;5021989;28;20112;-71
2023/08/08 10:33:49;;;;;;;2.67;0.63;;;;;;;-146.27;57.83;81612.88;5017116;28;20030;-73
2023/08/08 10:36:15;;;;;;;3.72;1.10;;;;;;;-146.27;56.19;81548.59;5025546;28;20131;-71
2023/08/08 10:38:50;;;;;;;1.77;0.60;;;;;;;-146.27;57.24;81444.19;5021313;28;20029;-72
2023/08/08 10:41:18;;;;;;;5.63;0.70;;;;;;;-146.27;57.52;81412.03;5026933;28;20037;-72
2023/08/08 10:43:53;;;;;;;0.75;0.70;;;;;;;-146.27;56.70;81488.38;5023284;28;20030;-72
2023/08/08 10:46:30;;;;;;;3.30;0.90;;;;;;;-146.27;56.50;81460.25;5029249;28;20025;-73
2023/08/08 10:49:04;;;;;;;1.98;0.70;;;;;;;-146.27;56.79;81387.94;5030200;28;20182;-72
2023/08/08 10:51:38;;;;;;;1.55;0.60;;;;;;;-146.27;54.41;81313.63;5029172;28;20032;-72
2023/08/08 10:54:09;;;;;;;3.63;0.77;;;;;;;-146.27;52.79;81341.75;5029546;28;20104;-72
2023/08/08 10:56:36;;;;;;;1.90;0.60;;;;;;;-146.27;52.62;81315.66;5030287;28;20036;-71
2023/08/08 10:59:14;;;;;;;1.30;0.55;;;;;;;-146.27;53.71;81319.66;5027756;28;20021;-71
2023/08/08 11:01:40;;;;;;;5.60;0.75;;;;;;;-146.27;53.27;81408.03;5026757;28;20540;-72
2023/08/08 11:04:06;;;;;;;0.77;0.40;;;;;;;-146.27;54.22;81436.16;5025134;28;20682;-71
2023/08/08 11:06:32;;;;;;;0.73;0.40;;;;;;;-146.27;54.77;81444.19;5029517;28;20045;-71
2023/08/08 11:09:00;;;;;;;3.75;0.90;;;;;;;-146.27;56.03;81486.34;5029443;28;20522;-71
2023/08/08 11:11:25;;;;;;;1.98;0.73;;;;;;;-146.27;56.39;81420.06;5027834;28;20030;-71
2023/08/08 11:13:52;;;;;;;2.03;0.57;;;;;;;-146.27;55.25;81404.00;5025895;28;20040;-73